sensor_id;sensor_type;location;lat;lon;timestamp;pressure;altitude;pressure_sealevel;temperature;humidity
44297;BME280;51842;47.450;8.654;2023-01-31T00:00:17;96515.69;;;0.75;100.00
44297;BME280;51842;47.450;8.654;2023-01-31T00:02:43;96515.69;;;0.75;100.00
44297;BME280;51842;47.450;8.654;2023-01-31T00:05:12;96517.06;;;0.71;100.00
44297;BME280;51842;47.450;8.654;2023-01-31T00:07:40;96516.88;;;0.72;100.00
44297;BME280;51842;47.450;8.654;2023-01-31T00:10:10;96517.34;;;0.76;100.00
44297;BME280;51842;47.450;8.654;2023-01-31T00:12:45;96512.47;;;0.73;100.00
44297;BME280;51842;47.450;8.654;2023-01-31T00:15:19;96514.88;;;0.74;100.00
44297;BME280;51842;47.450;8.654;2023-01-31T00:17:51;96515.69;;;0.75;100.00
44297;BME280;51842;47.450;8.654;2023-01-31T00:20:20;96505.84;;;0.77;100.00
44297;BME280;51842;47.450;8.654;2023-01-31T00:22:46;96493.53;;;0.77;100.00
44297;BME280;51842;47.450;8.654;2023-01-31T00:25:15;96501.25;;;0.79;100.00
44297;BME280;51842;47.450;8.654;2023-01-31T00:27:47;96509.56;;;0.82;100.00
44297;BME280;51842;47.450;8.654;2023-01-31T00:30:13;96502.88;;;0.80;100.00
44297;BME280;51842;47.450;8.654;2023-01-31T00:32:42;96510.81;;;0.72;100.00
44297;BME280;51842;47.450;8.654;2023-01-31T00:35:08;96500.31;;;0.72;100.00
44297;BME280;51842;47.450;8.654;2023-01-31T00:37:34;96502.69;;;0.66;100.00
44297;BME280;51842;47.450;8.654;2023-01-31T00:40:00;96500.31;;;0.72;100.00
44297;BME280;51842;47.450;8.654;2023-01-31T00:42:26;96494.81;;;0.66;100.00
44297;BME280;51842;47.450;8.654;2023-01-31T00:44:57;96493.00;;;0.67;100.00
44297;BME280;51842;47.450;8.654;2023-01-31T00:47:32;96490.19;;;0.68;100.00
44297;BME280;51842;47.450;8.654;2023-01-31T00:50:01;96491.19;;;0.67;100.00
44297;BME280;51842;47.450;8.654;2023-01-31T00:52:31;96494.09;;;0.73;100.00
44297;BME280;51842;47.450;8.654;2023-01-31T00:54:57;96489.31;;;0.76;100.00
44297;BME280;51842;47.450;8.654;2023-01-31T00:57:23;96480.06;;;0.65;100.00
44297;BME280;51842;47.450;8.654;2023-01-31T00:59:48;96470.41;;;0.66;100.00
44297;BME280;51842;47.450;8.654;2023-01-31T01:02:17;96468.59;;;0.66;100.00
44297;BME280;51842;47.450;8.654;2023-01-31T01:04:45;96468.84;;;0.72;100.00
44297;BME280;51842;47.450;8.654;2023-01-31T01:07:17;96461.72;;;0.65;100.00
44297;BME280;51842;47.450;8.654;2023-01-31T01:09:50;96463.00;;;0.69;100.00
44297;BME280;51842;47.450;8.654;2023-01-31T01:12:22;96463.81;;;0.70;100.00
44297;BME280;51842;47.450;8.654;2023-01-31T01:14:53;96469.22;;;0.68;100.00
44297;BME280;51842;47.450;8.654;2023-01-31T01:17:25;96465.25;;;0.73;100.00
44297;BME280;51842;47.450;8.654;2023-01-31T01:19:54;96465.06;;;0.74;100.00
44297;BME280;51842;47.450;8.654;2023-01-31T01:22:23;96464.59;;;0.71;100.00
44297;BME280;51842;47.450;8.654;2023-01-31T01:24:51;96472.28;;;0.72;100.00
44297;BME280;51842;47.450;8.654;2023-01-31T01:27:29;96480.78;;;0.74;100.00
44297;BME280;51842;47.450;8.654;2023-01-31T01:29:56;96477.81;;;0.77;100.00
44297;BME280;51842;47.450;8.654;2023-01-31T01:32:23;96477.66;;;0.79;100.00
44297;BME280;51842;47.450;8.654;2023-01-31T01:34:49;96475.03;;;0.79;100.00
44297;BME280;51842;47.450;8.654;2023-01-31T01:37:15;96480.28;;;0.79;100.00
44297;BME280;51842;47.450;8.654;2023-01-31T01:39:56;96485.31;;;0.80;100.00
44297;BME280;51842;47.450;8.654;2023-01-31T01:42:34;96479.72;;;0.83;100.00
44297;BME280;51842;47.450;8.654;2023-01-31T01:45:12;96481.31;;;0.84;100.00
44297;BME280;51842;47.450;8.654;2023-01-31T01:47:58;96483.94;;;0.84;100.00
44297;BME280;51842;47.450;8.654;2023-01-31T01:50:54;96480.97;;;0.87;100.00
44297;BME280;51842;47.450;8.654;2023-01-31T01:53:25;96477.38;;;0.88;100.00
44297;BME280;51842;47.450;8.654;2023-01-31T01:56:05;96471.47;;;0.86;100.00
44297;BME280;51842;47.450;8.654;2023-01-31T01:58:43;96474.09;;;0.86;100.00
44297;BME280;51842;47.450;8.654;2023-01-31T02:01:17;96480.16;;;0.87;100.00
44297;BME280;51842;47.450;8.654;2023-01-31T02:03:47;96481.97;;;0.86;100.00
44297;BME280;51842;47.450;8.654;2023-01-31T02:06:14;96475.09;;;0.85;100.00
44297;BME280;51842;47.450;8.654;2023-01-31T02:08:47;96480.34;;;0.85;100.00
44297;BME280;51842;47.450;8.654;2023-01-31T02:11:31;96485.75;;;0.84;100.00
44297;BME280;51842;47.450;8.654;2023-01-31T02:14:18;96479.25;;;0.80;100.00
44297;BME280;51842;47.450;8.654;2023-01-31T02:16:51;96480.28;;;0.79;100.00
44297;BME280;51842;47.450;8.654;2023-01-31T02:30:29;96486.03;;;0.74;100.00
44297;BME280;51842;47.450;8.654;2023-01-31T02:33:40;96494.47;;;0.69;100.00
44297;BME280;51842;47.450;8.654;2023-01-31T02:39:52;96493.38;;;0.64;100.00
44297;BME280;51842;47.450;8.654;2023-01-31T02:45:52;96487.47;;;0.62;100.00
44297;BME280;51842;47.450;8.654;2023-01-31T02:49:01;96492.28;;;0.58;100.00
44297;BME280;51842;47.450;8.654;2023-01-31T02:51:42;96491.81;;;0.55;100.00
44297;BME280;51842;47.450;8.654;2023-01-31T02:54:37;96496.78;;;0.50;100.00
44297;BME280;51842;47.450;8.654;2023-01-31T02:57:22;96490.09;;;0.47;100.00
44297;BME280;51842;47.450;8.654;2023-01-31T02:59:51;96486.03;;;0.44;100.00
44297;BME280;51842;47.450;8.654;2023-01-31T03:02:18;96484.03;;;0.46;100.00
44297;BME280;51842;47.450;8.654;2023-01-31T03:04:44;96479.44;;;0.49;100.00
44297;BME280;51842;47.450;8.654;2023-01-31T03:07:25;96468.84;;;0.42;100.00
44297;BME280;51842;47.450;8.654;2023-01-31T03:16:31;96476.28;;;0.15;100.00
44297;BME280;51842;47.450;8.654;2023-01-31T03:23:07;96488.19;;;0.03;100.00
44297;BME280;51842;47.450;8.654;2023-01-31T03:25:38;96483.13;;;0.02;100.00
44297;BME280;51842;47.450;8.654;2023-01-31T03:28:24;96489.25;;;-0.06;100.00
44297;BME280;51842;47.450;8.654;2023-01-31T03:31:47;96497.97;;;-0.14;100.00
44297;BME280;51842;47.450;8.654;2023-01-31T03:34:19;96500.63;;;-0.22;100.00
44297;BME280;51842;47.450;8.654;2023-01-31T03:37:46;96498.09;;;-0.30;100.00
44297;BME280;51842;47.450;8.654;2023-01-31T03:40:26;96511.06;;;-0.37;100.00
44297;BME280;51842;47.450;8.654;2023-01-31T03:43:34;96520.41;;;-0.42;100.00
44297;BME280;51842;47.450;8.654;2023-01-31T03:46:34;96518.16;;;-0.45;100.00
44297;BME280;51842;47.450;8.654;2023-01-31T03:49:09;96517.97;;;-0.44;100.00
44297;BME280;51842;47.450;8.654;2023-01-31T03:51:46;96513.72;;;-0.45;100.00
44297;BME280;51842;47.450;8.654;2023-01-31T03:54:28;96519.16;;;-0.47;100.00
44297;BME280;51842;47.450;8.654;2023-01-31T03:57:27;96520.31;;;-0.49;100.00
44297;BME280;51842;47.450;8.654;2023-01-31T04:00:03;96514.94;;;-0.56;100.00
44297;BME280;51842;47.450;8.654;2023-01-31T04:02:36;96512.19;;;-0.62;100.00
44297;BME280;51842;47.450;8.654;2023-01-31T04:05:20;96509.63;;;-0.71;100.00
44297;BME280;51842;47.450;8.654;2023-01-31T04:07:48;96512.75;;;-0.75;100.00
44297;BME280;51842;47.450;8.654;2023-01-31T04:10:19;96506.75;;;-0.84;100.00
44297;BME280;51842;47.450;8.654;2023-01-31T04:12:47;96512.81;;;-0.91;100.00
44297;BME280;51842;47.450;8.654;2023-01-31T04:15:17;96511.84;;;-0.99;100.00
44297;BME280;51842;47.450;8.654;2023-01-31T04:17:43;96515.16;;;-1.05;100.00
44297;BME280;51842;47.450;8.654;2023-01-31T04:20:10;96514.03;;;-1.10;100.00
44297;BME280;51842;47.450;8.654;2023-01-31T04:22:43;96517.50;;;-1.18;100.00
44297;BME280;51842;47.450;8.654;2023-01-31T04:25:22;96519.44;;;-1.20;100.00
44297;BME280;51842;47.450;8.654;2023-01-31T04:27:47;96531.06;;;-1.23;100.00
44297;BME280;51842;47.450;8.654;2023-01-31T04:30:13;96529.28;;;-1.22;100.00
44297;BME280;51842;47.450;8.654;2023-01-31T04:32:39;96527.63;;;-1.23;100.00
44297;BME280;51842;47.450;8.654;2023-01-31T04:35:05;96527.81;;;-1.25;100.00
44297;BME280;51842;47.450;8.654;2023-01-31T04:37:37;96530.75;;;-1.28;100.00
44297;BME280;51842;47.450;8.654;2023-01-31T04:40:08;96532.22;;;-1.33;100.00
44297;BME280;51842;47.450;8.654;2023-01-31T04:42:34;96528.00;;;-1.43;100.00
44297;BME280;51842;47.450;8.654;2023-01-31T04:44:59;96521.34;;;-1.53;100.00
44297;BME280;51842;47.450;8.654;2023-01-31T04:47:25;96520.81;;;-1.57;100.00
44297;BME280;51842;47.450;8.654;2023-01-31T04:49:51;96525.41;;;-1.59;100.00
44297;BME280;51842;47.450;8.654;2023-01-31T04:52:20;96522.94;;;-1.60;100.00
44297;BME280;51842;47.450;8.654;2023-01-31T04:54:51;96531.13;;;-1.55;100.00
44297;BME280;51842;47.450;8.654;2023-01-31T04:57:20;96528.19;;;-1.52;100.00
44297;BME280;51842;47.450;8.654;2023-01-31T04:59:49;96528.66;;;-1.57;100.00
44297;BME280;51842;47.450;8.654;2023-01-31T05:02:32;96531.13;;;-1.55;100.00
44297;BME280;51842;47.450;8.654;2023-01-31T05:05:17;96526.38;;;-1.52;100.00
44297;BME280;51842;47.450;8.654;2023-01-31T05:07:55;96533.06;;;-1.49;100.00
44297;BME280;51842;47.450;8.654;2023-01-31T05:10:46;96535.34;;;-1.46;100.00
44297;BME280;51842;47.450;8.654;2023-01-31T05:13:13;96536.03;;;-1.44;100.00
44297;BME280;51842;47.450;8.654;2023-01-31T05:15:39;96544.50;;;-1.42;100.00
44297;BME280;51842;47.450;8.654;2023-01-31T05:18:08;96545.16;;;-1.40;100.00
44297;BME280;51842;47.450;8.654;2023-01-31T05:20:37;96547.44;;;-1.37;100.00
44297;BME280;51842;47.450;8.654;2023-01-31T05:23:06;96551.53;;;-1.34;100.00
44297;BME280;51842;47.450;8.654;2023-01-31T05:25:49;96550.53;;;-1.33;100.00
44297;BME280;51842;47.450;8.654;2023-01-31T05:28:15;96565.22;;;-1.32;100.00
44297;BME280;51842;47.450;8.654;2023-01-31T05:30:47;96564.56;;;-1.26;100.00
44297;BME280;51842;47.450;8.654;2023-01-31T05:33:19;96566.50;;;-1.20;100.00
44297;BME280;51842;47.450;8.654;2023-01-31T05:35:47;96570.59;;;-1.18;100.00
44297;BME280;51842;47.450;8.654;2023-01-31T05:38:14;96562.22;;;-1.13;100.00
44297;BME280;51842;47.450;8.654;2023-01-31T05:40:50;96556.53;;;-1.08;100.00
44297;BME280;51842;47.450;8.654;2023-01-31T05:43:16;96551.09;;;-1.07;100.00
44297;BME280;51842;47.450;8.654;2023-01-31T05:45:43;96549.00;;;-1.03;100.00
44297;BME280;51842;47.450;8.654;2023-01-31T05:48:19;96554.84;;;-1.01;100.00
44297;BME280;51842;47.450;8.654;2023-01-31T05:50:48;96557.94;;;-0.98;100.00
44297;BME280;51842;47.450;8.654;2023-01-31T05:53:17;96556.81;;;-0.95;100.00
44297;BME280;51842;47.450;8.654;2023-01-31T05:55:49;96556.47;;;-0.92;100.00
44297;BME280;51842;47.450;8.654;2023-01-31T05:58:18;96564.16;;;-0.90;100.00
44297;BME280;51842;47.450;8.654;2023-01-31T06:00:44;96570.81;;;-0.88;100.00
44297;BME280;51842;47.450;8.654;2023-01-31T06:03:10;96570.50;;;-0.85;100.00
44297;BME280;51842;47.450;8.654;2023-01-31T06:05:36;96569.69;;;-0.85;100.00
44297;BME280;51842;47.450;8.654;2023-01-31T06:08:10;96578.50;;;-0.78;100.00
44297;BME280;51842;47.450;8.654;2023-01-31T06:10:43;96578.31;;;-0.77;100.00
44297;BME280;51842;47.450;8.654;2023-01-31T06:13:09;96589.25;;;-0.73;100.00
44297;BME280;51842;47.450;8.654;2023-01-31T06:15:34;96580.25;;;-0.71;100.00
44297;BME280;51842;47.450;8.654;2023-01-31T06:18:02;96579.94;;;-0.67;100.00
44297;BME280;51842;47.450;8.654;2023-01-31T06:20:37;96577.13;;;-0.66;100.00
44297;BME280;51842;47.450;8.654;2023-01-31T06:23:09;96584.63;;;-0.63;100.00
44297;BME280;51842;47.450;8.654;2023-01-31T06:25:47;96579.41;;;-0.63;100.00
44297;BME280;51842;47.450;8.654;2023-01-31T06:28:13;96566.97;;;-0.61;100.00
44297;BME280;51842;47.450;8.654;2023-01-31T06:30:39;96575.47;;;-0.59;100.00
44297;BME280;51842;47.450;8.654;2023-01-31T06:33:05;96580.19;;;-0.54;100.00
44297;BME280;51842;47.450;8.654;2023-01-31T06:35:34;96577.56;;;-0.54;100.00
44297;BME280;51842;47.450;8.654;2023-01-31T06:38:09;96580.53;;;-0.57;100.00
44297;BME280;51842;47.450;8.654;2023-01-31T06:40:37;96579.38;;;-0.55;100.00
44297;BME280;51842;47.450;8.654;2023-01-31T06:43:03;96586.22;;;-0.54;100.00
44297;BME280;51842;47.450;8.654;2023-01-31T06:45:32;96574.97;;;-0.54;100.00
44297;BME280;51842;47.450;8.654;2023-01-31T06:48:01;96589.16;;;-0.49;100.00
44297;BME280;51842;47.450;8.654;2023-01-31T06:50:30;96588.34;;;-0.49;100.00
44297;BME280;51842;47.450;8.654;2023-01-31T06:52:56;96594.41;;;-0.49;100.00
44297;BME280;51842;47.450;8.654;2023-01-31T06:55:24;96599.47;;;-0.47;100.00
44297;BME280;51842;47.450;8.654;2023-01-31T06:57:50;96598.50;;;-0.46;100.00
44297;BME280;51842;47.450;8.654;2023-01-31T07:00:18;96594.06;;;-0.45;100.00
44297;BME280;51842;47.450;8.654;2023-01-31T07:02:45;96588.97;;;-0.47;100.00
44297;BME280;51842;47.450;8.654;2023-01-31T07:05:11;96587.56;;;-0.50;100.00
44297;BME280;51842;47.450;8.654;2023-01-31T07:07:40;96599.63;;;-0.49;100.00
44297;BME280;51842;47.450;8.654;2023-01-31T07:10:07;96609.31;;;-0.49;100.00
44297;BME280;51842;47.450;8.654;2023-01-31T07:12:34;96599.97;;;-0.52;100.00
44297;BME280;51842;47.450;8.654;2023-01-31T07:15:00;96606.84;;;-0.51;100.00
44297;BME280;51842;47.450;8.654;2023-01-31T07:17:26;96605.22;;;-0.52;100.00
44297;BME280;51842;47.450;8.654;2023-01-31T07:19:52;96601.59;;;-0.51;100.00
44297;BME280;51842;47.450;8.654;2023-01-31T07:22:20;96601.59;;;-0.51;100.00
44297;BME280;51842;47.450;8.654;2023-01-31T07:24:46;96605.06;;;-0.50;100.00
44297;BME280;51842;47.450;8.654;2023-01-31T07:27:17;96604.22;;;-0.51;100.00
44297;BME280;51842;47.450;8.654;2023-01-31T07:29:44;96609.13;;;-0.48;100.00
44297;BME280;51842;47.450;8.654;2023-01-31T07:32:10;96610.59;;;-0.45;100.00
44297;BME280;51842;47.450;8.654;2023-01-31T07:34:36;96618.75;;;-0.40;100.00
44297;BME280;51842;47.450;8.654;2023-01-31T07:37:03;96622.31;;;-0.33;100.00
44297;BME280;51842;47.450;8.654;2023-01-31T07:39:29;96618.53;;;-0.30;100.00
44297;BME280;51842;47.450;8.654;2023-01-31T07:41:58;96616.91;;;-0.31;100.00
44297;BME280;51842;47.450;8.654;2023-01-31T07:44:24;96614.59;;;-0.26;100.00
44297;BME280;51842;47.450;8.654;2023-01-31T07:46:50;96609.00;;;-0.23;100.00
44297;BME280;51842;47.450;8.654;2023-01-31T07:49:22;96612.56;;;-0.16;100.00
44297;BME280;51842;47.450;8.654;2023-01-31T07:51:48;96614.03;;;-0.13;100.00
44297;BME280;51842;47.450;8.654;2023-01-31T07:54:13;96607.75;;;-0.04;100.00
44297;BME280;51842;47.450;8.654;2023-01-31T07:56:42;96601.81;;;0.02;100.00
44297;BME280;51842;47.450;8.654;2023-01-31T07:59:14;96600.66;;;0.05;100.00
44297;BME280;51842;47.450;8.654;2023-01-31T08:01:41;96600.31;;;0.08;100.00
44297;BME280;51842;47.450;8.654;2023-01-31T08:04:35;96607.31;;;0.15;100.00
44297;BME280;51842;47.450;8.654;2023-01-31T08:07:01;96609.22;;;0.21;100.00
44297;BME280;51842;47.450;8.654;2023-01-31T08:09:30;96603.63;;;0.25;100.00
44297;BME280;51842;47.450;8.654;2023-01-31T08:11:58;96608.53;;;0.28;100.00
44297;BME280;51842;47.450;8.654;2023-01-31T08:14:30;96612.25;;;0.33;100.00
44297;BME280;51842;47.450;8.654;2023-01-31T08:17:06;96605.06;;;0.35;100.00
44297;BME280;51842;47.450;8.654;2023-01-31T08:19:34;96608.94;;;0.39;100.00
44297;BME280;51842;47.450;8.654;2023-01-31T08:22:01;96604.47;;;0.48;100.00
44297;BME280;51842;47.450;8.654;2023-01-31T08:24:27;96605.22;;;0.57;100.00
44297;BME280;51842;47.450;8.654;2023-01-31T08:26:54;96600.84;;;0.49;99.75
44297;BME280;51842;47.450;8.654;2023-01-31T08:29:20;96602.41;;;0.58;100.00
44297;BME280;51842;47.450;8.654;2023-01-31T08:31:47;96600.69;;;0.65;99.07
44297;BME280;51842;47.450;8.654;2023-01-31T08:34:13;96596.34;;;0.58;98.33
44297;BME280;51842;47.450;8.654;2023-01-31T08:36:39;96591.66;;;0.68;98.39
44297;BME280;51842;47.450;8.654;2023-01-31T08:39:05;96594.84;;;0.78;98.11
44297;BME280;51842;47.450;8.654;2023-01-31T08:41:34;96589.53;;;0.86;97.62
44297;BME280;51842;47.450;8.654;2023-01-31T08:44:07;96587.34;;;0.90;97.62
44297;BME280;51842;47.450;8.654;2023-01-31T08:46:36;96578.41;;;0.99;97.78
44297;BME280;51842;47.450;8.654;2023-01-31T08:49:06;96583.94;;;1.04;96.94
44297;BME280;51842;47.450;8.654;2023-01-31T08:51:41;96590.91;;;1.12;96.48
44297;BME280;51842;47.450;8.654;2023-01-31T08:54:10;96589.00;;;1.21;95.39
44297;BME280;51842;47.450;8.654;2023-01-31T08:56:43;96599.53;;;1.35;95.78
44297;BME280;51842;47.450;8.654;2023-01-31T08:59:10;96603.22;;;1.41;94.72
44297;BME280;51842;47.450;8.654;2023-01-31T09:01:37;96598.59;;;1.43;93.84
44297;BME280;51842;47.450;8.654;2023-01-31T09:04:09;96604.00;;;1.56;93.38
44297;BME280;51842;47.450;8.654;2023-01-31T09:06:37;96597.28;;;1.69;92.54
44297;BME280;51842;47.450;8.654;2023-01-31T09:09:07;96599.47;;;1.80;92.13
44297;BME280;51842;47.450;8.654;2023-01-31T09:11:36;96600.47;;;2.00;91.52
44297;BME280;51842;47.450;8.654;2023-01-31T09:14:04;96600.81;;;2.12;90.18
44297;BME280;51842;47.450;8.654;2023-01-31T09:16:33;96601.59;;;2.27;90.24
44297;BME280;51842;47.450;8.654;2023-01-31T09:19:08;96606.72;;;2.36;89.48
44297;BME280;51842;47.450;8.654;2023-01-31T09:21:39;96604.97;;;2.43;88.49
44297;BME280;51842;47.450;8.654;2023-01-31T09:24:06;96603.84;;;2.52;88.27
44297;BME280;51842;47.450;8.654;2023-01-31T09:26:32;96605.13;;;2.63;87.42
44297;BME280;51842;47.450;8.654;2023-01-31T09:29:00;96608.28;;;2.73;87.40
44297;BME280;51842;47.450;8.654;2023-01-31T09:31:26;96601.34;;;2.93;86.51
44297;BME280;51842;47.450;8.654;2023-01-31T09:33:58;96602.44;;;3.06;84.80
44297;BME280;51842;47.450;8.654;2023-01-31T09:36:30;96593.84;;;3.25;85.19
44297;BME280;51842;47.450;8.654;2023-01-31T09:38:56;96597.19;;;3.40;82.80
44297;BME280;51842;47.450;8.654;2023-01-31T09:41:46;96591.97;;;3.54;82.34
44297;BME280;51842;47.450;8.654;2023-01-31T09:47:35;96594.88;;;4.27;80.19
44297;BME280;51842;47.450;8.654;2023-01-31T09:50:49;96589.22;;;4.63;77.91
44297;BME280;51842;47.450;8.654;2023-01-31T09:53:22;96593.50;;;5.04;77.37
44297;BME280;51842;47.450;8.654;2023-01-31T09:56:28;96592.03;;;5.34;73.67
44297;BME280;51842;47.450;8.654;2023-01-31T09:59:22;96599.75;;;5.43;72.46
44297;BME280;51842;47.450;8.654;2023-01-31T10:06:02;96608.25;;;5.45;71.81
44297;BME280;51842;47.450;8.654;2023-01-31T10:09:11;96608.38;;;5.76;70.97
44297;BME280;51842;47.450;8.654;2023-01-31T10:12:04;96600.44;;;5.76;70.44
44297;BME280;51842;47.450;8.654;2023-01-31T10:14:50;96604.50;;;5.79;69.65
44297;BME280;51842;47.450;8.654;2023-01-31T10:17:38;96598.88;;;5.62;70.30
44297;BME280;51842;47.450;8.654;2023-01-31T10:20:21;96600.72;;;5.48;69.93
44297;BME280;51842;47.450;8.654;2023-01-31T10:24:33;96608.69;;;5.28;71.60
44297;BME280;51842;47.450;8.654;2023-01-31T10:27:00;96604.88;;;5.18;72.22
44297;BME280;51842;47.450;8.654;2023-01-31T10:29:46;96610.78;;;4.93;73.73
44297;BME280;51842;47.450;8.654;2023-01-31T10:32:38;96600.41;;;4.98;73.45
44297;BME280;51842;47.450;8.654;2023-01-31T10:35:27;96587.59;;;5.15;72.88
44297;BME280;51842;47.450;8.654;2023-01-31T10:38:10;96585.72;;;5.36;71.18
44297;BME280;51842;47.450;8.654;2023-01-31T10:40:47;96583.50;;;5.39;70.26
44297;BME280;51842;47.450;8.654;2023-01-31T10:43:46;96583.28;;;5.41;70.29
44297;BME280;51842;47.450;8.654;2023-01-31T10:46:15;96579.06;;;5.06;71.26
44297;BME280;51842;47.450;8.654;2023-01-31T10:48:45;96571.50;;;5.37;69.25
44297;BME280;51842;47.450;8.654;2023-01-31T10:54:58;96563.38;;;5.25;68.38
44297;BME280;51842;47.450;8.654;2023-01-31T10:57:31;96546.97;;;5.09;68.30
44297;BME280;51842;47.450;8.654;2023-01-31T11:00:05;96558.16;;;5.05;68.88
44297;BME280;51842;47.450;8.654;2023-01-31T11:02:32;96557.34;;;4.98;67.17
44297;BME280;51842;47.450;8.654;2023-01-31T11:05:04;96555.53;;;4.85;68.09
44297;BME280;51842;47.450;8.654;2023-01-31T11:07:34;96548.41;;;4.99;69.25
44297;BME280;51842;47.450;8.654;2023-01-31T11:10:26;96542.13;;;4.93;69.69
44297;BME280;51842;47.450;8.654;2023-01-31T11:12:57;96546.56;;;5.13;70.59
44297;BME280;51842;47.450;8.654;2023-01-31T11:15:35;96548.19;;;5.20;69.47
44297;BME280;51842;47.450;8.654;2023-01-31T11:18:06;96547.09;;;5.41;68.81
44297;BME280;51842;47.450;8.654;2023-01-31T11:20:46;96538.16;;;5.42;67.79
44297;BME280;51842;47.450;8.654;2023-01-31T11:23:23;96518.94;;;5.67;67.61
44297;BME280;51842;47.450;8.654;2023-01-31T11:25:54;96526.34;;;5.90;67.05
44297;BME280;51842;47.450;8.654;2023-01-31T11:31:14;96515.13;;;6.33;66.20
44297;BME280;51842;47.450;8.654;2023-01-31T11:34:05;96511.38;;;6.15;64.11
44297;BME280;51842;47.450;8.654;2023-01-31T11:36:45;96521.03;;;6.03;65.82
44297;BME280;51842;47.450;8.654;2023-01-31T11:39:35;96510.03;;;5.61;64.65
44297;BME280;51842;47.450;8.654;2023-01-31T11:42:15;96509.59;;;5.64;65.66
44297;BME280;51842;47.450;8.654;2023-01-31T11:45:03;96504.16;;;5.52;64.99
44297;BME280;51842;47.450;8.654;2023-01-31T11:47:49;96520.84;;;5.46;66.15
44297;BME280;51842;47.450;8.654;2023-01-31T11:50:37;96510.59;;;5.18;66.37
44297;BME280;51842;47.450;8.654;2023-01-31T11:53:34;96505.03;;;5.40;66.38
44297;BME280;51842;47.450;8.654;2023-01-31T11:56:21;96498.09;;;5.39;66.54
44297;BME280;51842;47.450;8.654;2023-01-31T11:59:04;96492.66;;;5.33;65.86
44297;BME280;51842;47.450;8.654;2023-01-31T12:01:55;96488.19;;;5.34;66.02
44297;BME280;51842;47.450;8.654;2023-01-31T12:04:34;96488.78;;;5.29;65.82
44297;BME280;51842;47.450;8.654;2023-01-31T12:07:30;96486.72;;;5.38;65.92
44297;BME280;51842;47.450;8.654;2023-01-31T12:10:45;96492.81;;;5.39;66.50
44297;BME280;51842;47.450;8.654;2023-01-31T12:13:21;96487.38;;;5.33;65.53
44297;BME280;51842;47.450;8.654;2023-01-31T12:16:03;96474.91;;;4.89;67.12
44297;BME280;51842;47.450;8.654;2023-01-31T12:22:27;96461.34;;;4.66;67.38
44297;BME280;51842;47.450;8.654;2023-01-31T12:34:29;96485.25;;;5.55;65.90
44297;BME280;51842;47.450;8.654;2023-01-31T12:41:07;96485.69;;;5.46;65.53
44297;BME280;51842;47.450;8.654;2023-01-31T13:06:29;96466.53;;;6.52;59.35
44297;BME280;51842;47.450;8.654;2023-01-31T13:09:14;96463.72;;;6.47;59.41
44297;BME280;51842;47.450;8.654;2023-01-31T13:12:10;96471.53;;;6.35;60.15
44297;BME280;51842;47.450;8.654;2023-01-31T13:14:55;96465.56;;;6.46;61.06
44297;BME280;51842;47.450;8.654;2023-01-31T13:17:27;96455.47;;;6.80;60.57
44297;BME280;51842;47.450;8.654;2023-01-31T13:20:42;96456.44;;;7.23;58.97
44297;BME280;51842;47.450;8.654;2023-01-31T13:23:30;96452.69;;;7.30;57.52
44297;BME280;51842;47.450;8.654;2023-01-31T13:26:49;96452.81;;;7.17;57.61
44297;BME280;51842;47.450;8.654;2023-01-31T13:29:34;96449.34;;;6.80;57.84
44297;BME280;51842;47.450;8.654;2023-01-31T13:32:31;96441.94;;;6.88;58.25
44297;BME280;51842;47.450;8.654;2023-01-31T13:35:21;96451.31;;;6.66;59.20
44297;BME280;51842;47.450;8.654;2023-01-31T13:38:02;96446.78;;;6.48;58.69
44297;BME280;51842;47.450;8.654;2023-01-31T13:40:46;96445.66;;;6.12;60.33
44297;BME280;51842;47.450;8.654;2023-01-31T13:43:15;96456.63;;;6.16;61.75
44297;BME280;51842;47.450;8.654;2023-01-31T13:46:01;96447.38;;;6.00;61.45
44297;BME280;51842;47.450;8.654;2023-01-31T13:49:00;96447.44;;;5.87;63.67
44297;BME280;51842;47.450;8.654;2023-01-31T13:51:51;96436.06;;;5.93;62.88
44297;BME280;51842;47.450;8.654;2023-01-31T13:54:37;96438.09;;;5.84;62.59
44297;BME280;51842;47.450;8.654;2023-01-31T13:57:07;96433.34;;;5.68;64.44
44297;BME280;51842;47.450;8.654;2023-01-31T13:59:55;96437.28;;;5.52;65.87
44297;BME280;51842;47.450;8.654;2023-01-31T14:02:26;96449.09;;;5.49;66.55
44297;BME280;51842;47.450;8.654;2023-01-31T14:05:05;96457.53;;;5.20;66.84
44297;BME280;51842;47.450;8.654;2023-01-31T14:07:40;96459.94;;;5.28;66.97
44297;BME280;51842;47.450;8.654;2023-01-31T14:12:37;96469.00;;;4.94;67.04
44297;BME280;51842;47.450;8.654;2023-01-31T14:15:49;96475.13;;;4.81;68.44
44297;BME280;51842;47.450;8.654;2023-01-31T14:18:44;96477.81;;;4.61;68.94
44297;BME280;51842;47.450;8.654;2023-01-31T14:23:59;96464.81;;;4.20;70.43
44297;BME280;51842;47.450;8.654;2023-01-31T14:29:25;96458.31;;;4.22;69.69
44297;BME280;51842;47.450;8.654;2023-01-31T14:31:56;96468.69;;;4.30;70.53
44297;BME280;51842;47.450;8.654;2023-01-31T14:34:28;96463.59;;;4.29;69.67
44297;BME280;51842;47.450;8.654;2023-01-31T14:37:36;96470.28;;;4.18;70.64
44297;BME280;51842;47.450;8.654;2023-01-31T14:56:00;96425.25;;;3.73;72.65
44297;BME280;51842;47.450;8.654;2023-01-31T14:58:32;96437.78;;;3.64;72.56
44297;BME280;51842;47.450;8.654;2023-01-31T15:01:06;96419.75;;;3.61;72.13
44297;BME280;51842;47.450;8.654;2023-01-31T15:03:53;96423.59;;;3.59;72.46
44297;BME280;51842;47.450;8.654;2023-01-31T15:06:33;96437.19;;;3.69;72.62
44297;BME280;51842;47.450;8.654;2023-01-31T15:11:51;96426.41;;;3.57;72.72
44297;BME280;51842;47.450;8.654;2023-01-31T15:14:43;96435.72;;;3.53;73.92
44297;BME280;51842;47.450;8.654;2023-01-31T15:17:33;96424.22;;;3.61;72.91
44297;BME280;51842;47.450;8.654;2023-01-31T15:20:54;96408.41;;;3.61;73.08
44297;BME280;51842;47.450;8.654;2023-01-31T15:23:27;96418.50;;;3.51;73.80
44297;BME280;51842;47.450;8.654;2023-01-31T15:25:57;96413.84;;;3.59;73.14
44297;BME280;51842;47.450;8.654;2023-01-31T15:28:36;96423.19;;;3.55;73.54
44297;BME280;51842;47.450;8.654;2023-01-31T15:34:46;96423.19;;;3.55;74.24
44297;BME280;51842;47.450;8.654;2023-01-31T15:37:21;96430.84;;;3.50;74.07